Time;durP1;ratioP1;P1;durP2;ratioP2;P2;SDS_P1;SDS_P2;PMS_P1;PMS_P2;Temp;Humidity;BMP_temperature;BMP_pressure;BME280_temperature;BME280_humidity;BME280_pressure;Samples;Min_cycle;Max_cycle;Signal;HPM_P1;HPM_P2
2022/02/21 00:02:29;;;;;;;2.97;0.60;;;10.00;1.00;;;;;;7376336;19;20029;-63
2022/02/21 00:04:59;;;;;;;1.92;0.70;;;10.00;1.00;;;;;;7360376;19;20462;-62
2022/02/21 00:07:29;;;;;;;2.55;0.70;;;10.00;1.00;;;;;;7358870;19;20025;-62
2022/02/21 00:09:58;;;;;;;3.58;0.80;;;10.00;1.00;;;;;;7359144;19;20898;-62
2022/02/21 00:12:31;;;;;;;2.45;0.70;;;10.00;1.00;;;;;;7362127;19;20027;-63
2022/02/21 00:15:01;;;;;;;2.95;0.82;;;10.10;1.00;;;;;;7366410;19;20011;-62
2022/02/21 00:17:31;;;;;;;2.13;0.73;;;10.10;1.00;;;;;;7387334;19;20027;-62
2022/02/21 00:20:01;;;;;;;2.20;0.70;;;10.10;1.00;;;;;;7364500;19;20097;-62
2022/02/21 00:22:30;;;;;;;1.75;0.70;;;10.10;1.00;;;;;;7364318;19;20010;-64
2022/02/21 00:25:00;;;;;;;1.67;0.55;;;10.10;1.00;;;;;;7365463;19;20467;-62
2022/02/21 00:27:33;;;;;;;5.00;0.70;;;10.10;1.00;;;;;;7364584;19;20018;-63
2022/02/21 00:30:03;;;;;;;1.17;0.60;;;10.10;1.00;;;;;;7363278;19;20018;-63
2022/02/21 00:32:33;;;;;;;2.28;0.70;;;10.10;1.00;;;;;;7384905;19;20057;-62
2022/02/21 00:35:03;;;;;;;1.13;0.50;;;10.10;1.00;;;;;;7366890;19;20085;-62
2022/02/21 00:37:33;;;;;;;2.53;0.95;;;10.10;1.00;;;;;;7363439;19;20011;-62
2022/02/21 00:40:03;;;;;;;3.20;0.68;;;10.10;1.00;;;;;;7361424;19;20346;-63
2022/02/21 00:42:36;;;;;;;2.88;0.68;;;10.10;1.00;;;;;;7361626;19;20355;-63
2022/02/21 00:45:09;;;;;;;4.22;1.05;;;10.10;1.00;;;;;;7367441;19;20022;-62
2022/02/21 00:47:40;;;;;;;1.65;0.40;;;10.10;1.00;;;;;;7384989;19;20022;-63
2022/02/21 00:50:11;;;;;;;2.00;0.77;;;10.00;1.00;;;;;;7360473;19;20112;-63
2022/02/21 00:52:41;;;;;;;1.27;0.68;;;10.00;1.00;;;;;;7360374;19;20010;-62
2022/02/21 00:55:11;;;;;;;3.35;0.70;;;10.00;1.00;;;;;;7367962;19;20058;-63
2022/02/21 00:57:44;;;;;;;1.55;0.50;;;9.90;1.00;;;;;;7366870;19;20010;-63
2022/02/21 01:00:14;;;;;;;3.63;0.77;;;9.90;1.00;;;;;;7360704;19;20074;-62
2022/02/21 01:02:44;;;;;;;3.00;0.70;;;9.90;1.00;;;;;;7383014;19;20007;-62
2022/02/21 01:05:14;;;;;;;1.95;0.90;;;9.90;1.00;;;;;;7366469;19;20015;-61
2022/02/21 01:07:44;;;;;;;4.40;0.75;;;9.90;1.00;;;;;;7362527;19;20017;-62
2022/02/21 01:10:14;;;;;;;3.22;0.77;;;9.90;1.00;;;;;;7362282;19;20490;-62
2022/02/21 01:12:47;;;;;;;1.70;0.82;;;10.00;1.00;;;;;;7361331;19;20085;-62
2022/02/21 01:15:17;;;;;;;3.50;0.70;;;10.00;1.00;;;;;;7366317;19;20011;-62
2022/02/21 01:17:47;;;;;;;2.67;0.70;;;10.00;1.00;;;;;;7388598;19;20026;-63
2022/02/21 01:20:17;;;;;;;3.20;0.60;;;10.00;1.00;;;;;;7361873;19;20391;-62
2022/02/21 01:22:47;;;;;;;3.35;1.15;;;10.00;1.00;;;;;;7359336;19;20053;-62
2022/02/21 01:25:17;;;;;;;2.65;1.10;;;9.90;1.00;;;;;;7363075;19;20022;-62
2022/02/21 01:27:50;;;;;;;4.05;0.77;;;9.90;1.00;;;;;;7364924;19;20007;-62
2022/02/21 01:30:20;;;;;;;3.10;0.88;;;9.90;1.00;;;;;;7363442;19;20017;-62
2022/02/21 01:32:50;;;;;;;3.50;0.75;;;9.90;1.00;;;;;;7381817;19;20014;-62
2022/02/21 01:35:20;;;;;;;3.78;0.80;;;9.90;1.00;;;;;;7363972;19;20429;-62
2022/02/21 01:37:50;;;;;;;2.47;0.85;;;9.90;1.00;;;;;;7363729;19;20013;-62
2022/02/21 01:40:20;;;;;;;2.28;1.02;;;9.90;1.00;;;;;;7362858;19;20680;-62
2022/02/21 01:42:53;;;;;;;4.60;0.88;;;9.80;1.00;;;;;;7361063;19;20023;-61
2022/02/21 01:45:23;;;;;;;0.80;0.50;;;9.90;1.00;;;;;;7364142;19;20479;-61
2022/02/21 01:47:53;;;;;;;0.95;0.60;;;9.80;1.00;;;;;;7385363;19;20018;-61
2022/02/21 01:50:23;;;;;;;1.42;0.50;;;9.80;1.00;;;;;;7363244;19;20015;-62
2022/02/21 01:52:53;;;;;;;2.65;0.68;;;9.80;1.00;;;;;;7358924;19;20019;-62
2022/02/21 01:55:23;;;;;;;1.33;0.60;;;9.90;1.00;;;;;;7366262;19;20027;-62
2022/02/21 01:57:56;;;;;;;1.63;0.60;;;9.80;1.00;;;;;;7362911;19;20463;-62
2022/02/21 02:00:26;;;;;;;2.97;0.50;;;9.80;1.00;;;;;;7363043;19;20034;-62
2022/02/21 02:02:56;;;;;;;3.35;0.70;;;9.80;1.00;;;;;;7381779;19;20082;-64
2022/02/21 02:05:26;;;;;;;1.65;0.40;;;9.80;1.00;;;;;;7385178;19;20422;-62
2022/02/21 02:07:56;;;;;;;1.15;0.60;;;9.80;1.00;;;;;;7361071;19;20014;-62
2022/02/21 02:10:27;;;;;;;1.90;0.50;;;9.80;1.00;;;;;;7362229;19;20495;-61
2022/02/21 02:12:59;;;;;;;1.33;0.40;;;9.80;1.00;;;;;;7361060;19;20044;-61
2022/02/21 02:15:30;;;;;;;1.50;0.73;;;9.80;1.00;;;;;;7365255;19;20020;-62
2022/02/21 02:18:00;;;;;;;2.80;0.55;;;9.80;1.00;;;;;;7361362;19;20097;-62
2022/02/21 02:20:30;;;;;;;3.20;0.75;;;9.70;1.00;;;;;;7381079;19;20496;-62
2022/02/21 02:23:06;;;;;;;1.42;0.60;;;9.80;1.00;;;;;;7360467;19;20010;-62
2022/02/21 02:25:36;;;;;;;2.60;0.60;;;9.80;1.00;;;;;;7365949;19;20494;-61
2022/02/21 02:28:06;;;;;;;2.72;0.57;;;9.70;1.00;;;;;;7362390;19;20007;-62
2022/02/21 02:30:36;;;;;;;2.20;0.47;;;9.80;1.00;;;;;;7358608;19;20049;-62
2022/02/21 02:33:06;;;;;;;1.85;0.85;;;9.80;1.00;;;;;;7359349;19;20018;-62
2022/02/21 02:35:36;;;;;;;0.77;0.30;;;9.80;1.00;;;;;;7387709;19;20128;-62
2022/02/21 02:38:08;;;;;;;0.77;0.30;;;9.80;1.00;;;;;;7362862;19;20530;-62
2022/02/21 02:40:38;;;;;;;1.98;0.50;;;9.80;1.00;;;;;;7357769;19;20006;-63
2022/02/21 02:43:08;;;;;;;2.42;0.63;;;9.80;1.00;;;;;;7360306;19;20090;-62
2022/02/21 02:45:38;;;;;;;2.05;0.50;;;9.70;1.00;;;;;;7365508;19;20105;-62
2022/02/21 02:48:09;;;;;;;1.85;0.47;;;9.70;1.00;;;;;;7362380;19;20027;-62
2022/02/21 02:50:39;;;;;;;0.70;0.40;;;9.70;1.00;;;;;;7378949;19;20098;-62
2022/02/21 02:53:12;;;;;;;0.93;0.40;;;9.70;1.00;;;;;;7358787;19;20018;-62
2022/02/21 02:55:42;;;;;;;1.75;0.60;;;9.70;1.00;;;;;;7363688;19;20014;-62
2022/02/21 02:58:11;;;;;;;0.93;0.30;;;9.70;1.00;;;;;;7362918;19;20063;-62
2022/02/21 03:00:41;;;;;;;1.77;0.50;;;9.60;1.00;;;;;;7358568;19;20089;-62
2022/02/21 03:03:11;;;;;;;2.55;0.50;;;9.60;1.00;;;;;;7359939;19;20018;-62
2022/02/21 03:05:41;;;;;;;1.45;0.80;;;9.60;1.10;;;;;;7384459;19;20094;-61
2022/02/21 03:08:13;;;;;;;1.30;0.45;;;9.50;2.30;;;;;;7361573;19;20018;-61
2022/02/21 03:10:43;;;;;;;0.85;0.40;;;9.50;3.30;;;;;;7359365;19;20104;-62
2022/02/21 03:13:13;;;;;;;1.90;0.60;;;9.40;3.40;;;;;;7361054;19;20090;-61
2022/02/21 03:15:43;;;;;;;1.20;0.32;;;9.50;3.80;;;;;;7364291;19;20006;-61
2022/02/21 03:18:13;;;;;;;1.05;0.40;;;9.40;4.40;;;;;;7361953;19;20049;-62
2022/02/21 03:20:43;;;;;;;2.63;0.45;;;9.40;4.70;;;;;;7380632;19;20014;-62
2022/02/21 03:23:16;;;;;;;0.77;0.40;;;9.40;4.90;;;;;;7362076;19;20078;-62
2022/02/21 03:25:46;;;;;;;1.58;0.40;;;9.30;5.40;;;;;;7362601;19;20010;-62
2022/02/21 03:28:16;;;;;;;0.82;0.40;;;9.30;5.30;;;;;;7359181;19;20561;-62
2022/02/21 03:30:46;;;;;;;3.10;0.40;;;9.30;5.50;;;;;;7358139;19;20458;-62
2022/02/21 03:33:16;;;;;;;2.47;0.55;;;9.40;7.00;;;;;;7361970;19;20013;-61
2022/02/21 03:35:46;;;;;;;2.60;0.50;;;6.10;25.40;;;;;;7382632;19;20014;-61
2022/02/21 03:38:19;;;;;;;3.22;0.70;;;5.20;25.70;;;;;;7355019;19;20475;-61
2022/02/21 03:40:49;;;;;;;3.83;0.75;;;4.80;33.90;;;;;;7355215;19;20409;-61
2022/02/21 03:43:19;;;;;;;3.50;0.70;;;4.60;37.00;;;;;;7360366;19;20363;-62
2022/02/21 03:45:48;;;;;;;1.77;0.35;;;4.60;38.60;;;;;;7364803;19;20017;-62
2022/02/21 03:48:18;;;;;;;3.67;0.75;;;4.50;35.00;;;;;;7367365;19;20073;-62
2022/02/21 03:50:48;;;;;;;2.05;0.43;;;4.50;28.10;;;;;;7384700;19;20017;-62
2022/02/21 03:53:21;;;;;;;1.20;0.73;;;4.30;27.60;;;;;;7368288;19;20022;-62
2022/02/21 03:55:51;;;;;;;3.08;0.70;;;4.40;30.80;;;;;;7370298;19;20410;-62
2022/02/21 03:58:21;;;;;;;2.10;0.68;;;4.30;28.30;;;;;;7367834;19;20010;-61
2022/02/21 04:00:50;;;;;;;5.13;0.98;;;4.40;25.20;;;;;;7363610;19;20010;-62
2022/02/21 04:03:20;;;;;;;5.43;1.10;;;4.30;23.90;;;;;;7367953;19;20014;-61
2022/02/21 04:05:50;;;;;;;4.18;0.70;;;4.20;26.80;;;;;;7391976;19;20600;-61
2022/02/21 04:08:27;;;;;;;4.45;0.63;;;4.20;28.10;;;;;;7364052;19;20018;-62
2022/02/21 04:10:58;;;;;;;4.50;0.95;;;4.10;32.10;;;;;;7361099;19;20426;-61
2022/02/21 04:13:27;;;;;;;3.97;1.30;;;4.00;28.80;;;;;;7366362;19;20010;-61
2022/02/21 04:15:58;;;;;;;4.18;1.15;;;4.00;30.80;;;;;;7369765;19;20415;-61
2022/02/21 04:18:28;;;;;;;7.78;1.17;;;4.00;28.60;;;;;;7366678;19;20006;-61
2022/02/21 04:20:57;;;;;;;4.75;0.57;;;4.00;29.80;;;;;;7364640;19;20027;-62
2022/02/21 04:23:30;;;;;;;2.75;0.70;;;4.00;29.20;;;;;;7386766;19;20014;-62
2022/02/21 04:26:00;;;;;;;4.35;0.80;;;4.10;27.70;;;;;;7368514;19;20014;-61
2022/02/21 04:28:30;;;;;;;5.05;1.00;;;4.10;25.80;;;;;;7367776;19;20010;-61
2022/02/21 04:30:59;;;;;;;2.55;0.85;;;4.20;22.40;;;;;;7361655;19;20013;-61
2022/02/21 04:33:29;;;;;;;6.72;0.90;;;4.50;15.80;;;;;;7363885;19;20007;-61
2022/02/21 04:35:59;;;;;;;2.67;1.00;;;4.50;12.20;;;;;;7367771;19;20015;-62
2022/02/21 04:38:32;;;;;;;2.80;0.70;;;4.60;8.70;;;;;;7388058;19;20462;-61
2022/02/21 04:41:03;;;;;;;5.23;0.80;;;4.70;6.40;;;;;;7363884;19;20451;-61
2022/02/21 04:43:35;;;;;;;9.15;0.93;;;4.80;2.70;;;;;;7363414;19;20824;-62
2022/02/21 04:46:07;;;;;;;3.10;1.00;;;4.80;3.50;;;;;;7361747;19;20501;-62
2022/02/21 04:48:37;;;;;;;2.30;0.77;;;4.80;3.60;;;;;;7356945;19;20011;-61
2022/02/21 04:51:07;;;;;;;4.95;1.10;;;4.80;3.10;;;;;;7354569;19;20077;-61
2022/02/21 04:53:40;;;;;;;4.35;0.90;;;4.80;5.10;;;;;;7383145;19;20025;-61
2022/02/21 04:56:10;;;;;;;4.90;1.10;;;4.90;3.40;;;;;;7363409;19;20641;-61
2022/02/21 04:58:40;;;;;;;3.03;0.90;;;4.90;3.20;;;;;;7364815;19;20074;-61
2022/02/21 05:01:10;;;;;;;6.07;1.00;;;4.90;4.60;;;;;;7360569;19;20010;-60
2022/02/21 05:03:40;;;;;;;6.40;1.50;;;4.90;5.80;;;;;;7365892;19;20010;-61
2022/02/21 05:06:10;;;;;;;6.93;1.08;;;4.90;5.50;;;;;;7365285;19;20077;-61
2022/02/21 05:08:43;;;;;;;5.00;1.17;;;5.00;5.40;;;;;;7385237;19;20082;-61
2022/02/21 05:11:13;;;;;;;3.67;1.08;;;5.00;4.60;;;;;;7359807;19;20078;-61
2022/02/21 05:13:43;;;;;;;6.90;1.55;;;5.00;4.60;;;;;;7367091;19;20026;-61
2022/02/21 05:16:12;;;;;;;5.68;1.10;;;5.00;4.30;;;;;;7366762;19;20094;-60
2022/02/21 05:18:42;;;;;;;4.53;1.20;;;5.10;3.90;;;;;;7364370;19;20018;-61
2022/02/21 05:21:12;;;;;;;6.22;1.45;;;5.10;3.40;;;;;;7358922;19;21028;-61
2022/02/21 05:23:44;;;;;;;4.15;1.10;;;5.10;2.70;;;;;;7389105;19;20022;-62
2022/02/21 05:26:14;;;;;;;3.47;1.15;;;5.10;3.90;;;;;;7365110;19;20010;-62
2022/02/21 05:28:44;;;;;;;4.70;1.08;;;5.10;3.10;;;;;;7362839;19;20082;-62
2022/02/21 05:31:14;;;;;;;6.78;1.20;;;5.10;1.80;;;;;;7358832;19;20070;-62
2022/02/21 05:33:44;;;;;;;8.60;1.33;;;5.20;1.70;;;;;;7365730;19;20018;-61
2022/02/21 05:36:14;;;;;;;6.05;1.67;;;5.20;2.40;;;;;;7365765;19;20015;-62
2022/02/21 05:38:46;;;;;;;6.32;1.55;;;5.20;1.70;;;;;;7384652;19;20352;-62
2022/02/21 05:41:16;;;;;;;7.72;1.50;;;5.20;1.80;;;;;;7358540;19;20010;-62
2022/02/21 05:43:46;;;;;;;5.00;1.63;;;5.20;1.10;;;;;;7364458;19;20481;-61
2022/02/21 05:46:16;;;;;;;10.50;1.50;;;5.20;1.70;;;;;;7367117;19;20017;-61
2022/02/21 05:48:46;;;;;;;7.75;1.55;;;5.20;1.60;;;;;;7363969;19;20013;-61
2022/02/21 05:51:16;;;;;;;6.65;1.45;;;5.20;1.00;;;;;;7359368;19;20022;-62
2022/02/21 05:53:49;;;;;;;8.27;1.67;;;5.20;1.60;;;;;;7386522;19;20014;-62
2022/02/21 05:56:19;;;;;;;7.80;2.05;;;5.20;1.00;;;;;;7365649;19;20474;-60
2022/02/21 05:58:49;;;;;;;8.52;1.45;;;5.20;1.00;;;;;;7363344;19;20011;-61
2022/02/21 06:01:19;;;;;;;9.82;1.55;;;5.30;1.00;;;;;;7358241;19;20069;-62
2022/02/21 06:03:49;;;;;;;5.68;1.60;;;5.20;1.00;;;;;;7362556;19;20438;-62
2022/02/21 06:06:19;;;;;;;6.53;1.98;;;5.30;1.00;;;;;;7365763;19;20010;-61
2022/02/21 06:08:51;;;;;;;10.50;2.00;;;5.20;1.00;;;;;;7383129;19;20010;-60
2022/02/21 06:11:21;;;;;;;12.60;2.22;;;5.20;1.20;;;;;;7357872;19;20082;-61
2022/02/21 06:13:51;;;;;;;7.50;1.67;;;5.20;1.00;;;;;;7363546;19;20002;-61
2022/02/21 06:16:21;;;;;;;6.93;2.15;;;5.20;1.00;;;;;;7364519;19;20046;-61
2022/02/21 06:18:51;;;;;;;7.43;1.60;;;5.20;1.70;;;;;;7362851;19;20015;-61
2022/02/21 06:21:21;;;;;;;12.65;1.95;;;5.20;1.00;;;;;;7358532;19;20027;-61
2022/02/21 06:23:53;;;;;;;10.70;2.38;;;5.20;1.00;;;;;;7384982;19;20021;-61
2022/02/21 06:26:23;;;;;;;9.85;1.80;;;5.20;1.00;;;;;;7363413;19;20011;-62
2022/02/21 06:28:53;;;;;;;13.57;2.20;;;5.20;1.00;;;;;;7359147;19;20652;-62
2022/02/21 06:31:23;;;;;;;15.40;1.95;;;5.20;1.00;;;;;;7357438;19;20006;-61
2022/02/21 06:33:53;;;;;;;9.70;2.35;;;5.20;1.00;;;;;;7358443;19;20030;-61
2022/02/21 06:36:23;;;;;;;9.88;3.22;;;5.30;1.00;;;;;;7362456;19;20018;-61
2022/02/21 06:38:55;;;;;;;8.43;2.17;;;5.30;1.00;;;;;;7381928;19;20018;-61
2022/02/21 06:41:25;;;;;;;7.43;1.90;;;5.20;1.00;;;;;;7359007;19;20022;-62
2022/02/21 06:43:55;;;;;;;9.95;2.22;;;5.20;1.00;;;;;;7363705;19;20007;-61
2022/02/21 06:46:25;;;;;;;9.05;2.10;;;5.20;1.00;;;;;;7362844;19;20082;-62
2022/02/21 06:48:55;;;;;;;8.25;2.05;;;5.20;1.00;;;;;;7359459;19;20098;-60
2022/02/21 06:51:25;;;;;;;8.68;1.95;;;5.10;1.00;;;;;;7358690;19;20880;-60
2022/02/21 06:53:57;;;;;;;11.32;1.88;;;5.20;1.00;;;;;;7384626;19;20014;-60
2022/02/21 06:56:27;;;;;;;10.63;1.98;;;5.10;1.00;;;;;;7360651;19;20014;-62
2022/02/21 06:58:57;;;;;;;9.13;2.28;;;5.10;1.00;;;;;;7356904;19;20016;-61
2022/02/21 07:01:27;;;;;;;10.32;1.88;;;5.10;1.00;;;;;;7356954;19;20541;-62
2022/02/21 07:03:56;;;;;;;6.20;1.90;;;5.20;1.00;;;;;;7363323;19;20485;-61
2022/02/21 07:06:26;;;;;;;8.88;1.65;;;5.20;1.00;;;;;;7364020;19;20022;-61
2022/02/21 07:08:59;;;;;;;5.03;1.80;;;5.20;1.00;;;;;;7378529;19;20086;-63
2022/02/21 07:11:28;;;;;;;4.80;1.40;;;5.20;1.00;;;;;;7376517;19;20070;-62
2022/02/21 07:13:58;;;;;;;14.00;1.83;;;5.10;1.00;;;;;;7362357;19;20481;-61
2022/02/21 07:16:30;;;;;;;11.93;2.30;;;5.10;1.00;;;;;;7363554;19;20014;-61
2022/02/21 07:18:59;;;;;;;9.98;2.45;;;5.00;1.00;;;;;;7357012;19;20014;-61
2022/02/21 07:21:29;;;;;;;7.72;1.52;;;5.00;1.00;;;;;;7357076;19;20010;-61
2022/02/21 07:24:02;;;;;;;13.85;2.33;;;5.00;1.00;;;;;;7361921;19;20018;-61
2022/02/21 07:26:34;;;;;;;9.45;2.50;;;5.10;1.00;;;;;;7385382;19;20014;-61
2022/02/21 07:29:04;;;;;;;9.85;1.90;;;5.10;1.00;;;;;;7358041;19;20018;-61
2022/02/21 07:31:34;;;;;;;11.07;2.83;;;5.10;1.00;;;;;;7356505;19;20010;-61
2022/02/21 07:34:05;;;;;;;15.95;2.50;;;5.10;1.00;;;;;;7361919;19;20042;-61
2022/02/21 07:36:35;;;;;;;10.15;2.30;;;5.20;1.00;;;;;;7363044;19;20014;-61
2022/02/21 07:39:07;;;;;;;12.45;2.45;;;5.20;1.00;;;;;;7357892;19;20090;-61
2022/02/21 07:41:39;;;;;;;11.05;2.38;;;5.20;1.00;;;;;;7376647;19;20031;-61
2022/02/21 07:44:09;;;;;;;9.43;2.42;;;5.30;1.00;;;;;;7360521;19;20014;-61
2022/02/21 07:46:39;;;;;;;11.00;1.60;;;5.30;1.00;;;;;;7360474;19;20023;-61
2022/02/21 07:49:09;;;;;;;11.65;2.03;;;5.40;1.00;;;;;;7358834;19;20483;-61
2022/02/21 07:51:39;;;;;;;11.23;2.03;;;5.40;1.00;;;;;;7357019;19;20431;-61
2022/02/21 07:54:11;;;;;;;12.75;2.38;;;5.40;1.00;;;;;;7359950;19;20014;-60
2022/02/21 07:57:01;;;;;;;12.18;3.05;;;5.50;1.00;;;;;;7359438;19;20029;-61
2022/02/21 07:59:31;;;;;;;15.68;3.00;;;5.50;1.00;;;;;;7376791;19;20023;-61
2022/02/21 08:02:02;;;;;;;13.20;2.25;;;5.60;1.00;;;;;;7356748;19;20031;-64
2022/02/21 08:04:32;;;;;;;8.20;2.13;;;5.60;1.00;;;;;;7362990;19;20082;-60
2022/02/21 08:07:02;;;;;;;7.10;2.45;;;5.70;1.00;;;;;;7361652;19;20025;-61
2022/02/21 08:09:34;;;;;;;11.73;1.88;;;5.70;1.00;;;;;;7356980;19;20800;-62
2022/02/21 08:12:07;;;;;;;7.00;2.58;;;5.70;1.00;;;;;;7354958;19;20777;-61
2022/02/21 08:14:37;;;;;;;13.10;2.17;;;6.00;1.00;;;;;;7384215;19;20010;-61
2022/02/21 08:17:08;;;;;;;10.27;2.22;;;6.00;1.00;;;;;;7359012;19;20017;-61
2022/02/21 08:19:37;;;;;;;13.95;2.85;;;6.20;1.00;;;;;;7355889;19;20027;-61
2022/02/21 08:22:08;;;;;;;12.00;2.92;;;6.30;1.00;;;;;;7355855;19;20051;-61
2022/02/21 08:24:40;;;;;;;13.68;2.80;;;6.20;1.00;;;;;;7359977;19;20011;-62
2022/02/21 08:27:10;;;;;;;9.85;2.42;;;6.30;1.00;;;;;;7360901;19;20364;-61
2022/02/21 08:29:40;;;;;;;12.38;2.95;;;6.20;1.00;;;;;;7376453;19;20014;-61
2022/02/21 08:32:12;;;;;;;9.50;2.90;;;6.60;1.00;;;;;;7357163;19;20082;-63
2022/02/21 08:34:45;;;;;;;10.15;2.38;;;6.50;1.00;;;;;;7368456;19;20013;-61
2022/02/21 08:37:15;;;;;;;8.27;2.22;;;6.70;1.00;;;;;;7368123;19;20016;-61
2022/02/21 08:39:47;;;;;;;10.88;2.33;;;6.80;1.00;;;;;;7363263;19;21882;-62
2022/02/21 08:42:17;;;;;;;11.35;2.17;;;6.80;1.00;;;;;;7361327;19;20004;-62
2022/02/21 08:44:47;;;;;;;8.60;2.03;;;6.90;1.00;;;;;;7390456;19;20024;-61
2022/02/21 08:47:17;;;;;;;14.98;3.60;;;6.90;1.00;;;;;;7368353;19;20014;-62
2022/02/21 08:49:47;;;;;;;15.32;2.97;;;6.90;1.00;;;;;;7362710;19;20551;-63
2022/02/21 08:52:17;;;;;;;9.57;2.45;;;7.00;1.00;;;;;;7359260;19;20011;-61
2022/02/21 08:54:50;;;;;;;11.93;2.25;;;7.00;1.00;;;;;;7366570;19;20052;-61
2022/02/21 08:57:20;;;;;;;13.68;2.70;;;6.60;1.00;;;;;;7368003;19;20175;-61
2022/02/21 08:59:49;;;;;;;13.13;2.10;;;6.50;1.00;;;;;;7384011;19;20058;-61
2022/02/21 09:02:19;;;;;;;10.40;2.33;;;6.40;1.00;;;;;;7359935;19;20340;-61
2022/02/21 09:05:11;;;;;;;9.55;1.83;;;6.40;1.00;;;;;;7365372;19;20010;-60
2022/02/21 09:07:41;;;;;;;4.60;1.73;;;6.40;1.00;;;;;;7364889;19;20007;-61
2022/02/21 09:10:13;;;;;;;11.63;2.60;;;6.30;1.00;;;;;;7363645;19;20369;-61
2022/02/21 09:12:43;;;;;;;13.38;2.83;;;6.40;1.00;;;;;;7360383;19;20010;-61
2022/02/21 09:15:13;;;;;;;8.20;2.45;;;6.50;1.00;;;;;;7364487;19;20105;-61
2022/02/21 09:17:43;;;;;;;8.52;2.63;;;6.50;1.00;;;;;;7387028;19;20012;-62
2022/02/21 09:20:15;;;;;;;7.30;2.05;;;6.40;1.00;;;;;;7362288;19;20014;-62
2022/02/21 09:22:45;;;;;;;11.27;2.65;;;6.50;1.00;;;;;;7358324;19;20553;-63
2022/02/21 09:25:18;;;;;;;10.90;2.75;;;6.60;1.00;;;;;;7359084;19;20488;-63
2022/02/21 09:27:48;;;;;;;6.65;1.80;;;6.70;1.00;;;;;;7359164;19;20439;-66
2022/02/21 09:30:20;;;;;;;11.55;2.30;;;6.70;1.00;;;;;;7358669;19;20014;-61
2022/02/21 09:32:50;;;;;;;8.20;2.00;;;6.80;1.00;;;;;;7379154;19;20514;-62
2022/02/21 09:35:23;;;;;;;6.28;1.55;;;6.90;1.00;;;;;;7363799;19;20054;-62
2022/02/21 09:37:54;;;;;;;8.63;1.45;;;6.70;1.00;;;;;;7361585;19;20073;-62
2022/02/21 09:40:26;;;;;;;7.05;1.70;;;6.80;1.00;;;;;;7354401;19;20020;-62
2022/02/21 09:42:59;;;;;;;7.30;1.60;;;6.80;1.00;;;;;;7352035;19;20081;-62
2022/02/21 09:45:30;;;;;;;7.97;1.77;;;6.80;1.00;;;;;;7355186;19;20032;-61
2022/02/21 09:48:01;;;;;;;6.13;1.55;;;7.20;1.00;;;;;;7355680;19;20348;-62
2022/02/21 09:50:45;;;;;;;;;;;7.00;1.00;;;;;;7374359;19;20049;-62
2022/02/21 09:53:15;;;;;;;7.28;1.55;;;7.30;1.00;;;;;;7355810;19;19914;-62
2022/02/21 09:55:48;;;;;;;5.97;1.45;;;7.20;1.00;;;;;;7360127;19;20026;-62
2022/02/21 09:58:17;;;;;;;8.25;1.83;;;7.00;1.00;;;;;;7360333;19;20018;-62
2022/02/21 10:00:49;;;;;;;5.22;1.45;;;6.90;1.00;;;;;;7352314;19;20362;-62
2022/02/21 10:03:40;;;;;;;4.28;1.33;;;7.10;1.00;;;;;;7357000;19;20010;-61
2022/02/21 10:06:20;;;;;;;13.10;2.67;;;6.90;1.00;;;;;;7359544;19;20020;-61
2022/02/21 10:08:57;;;;;;;9.18;1.58;;;6.90;1.00;;;;;;7378322;19;20607;-62
2022/02/21 10:11:43;;;;;;;13.48;3.20;;;6.60;1.00;;;;;;7356146;19;20447;-60
2022/02/21 10:14:15;;;;;;;10.30;1.58;;;6.50;1.00;;;;;;7356176;19;20019;-62
2022/02/21 10:16:51;;;;;;;8.60;2.25;;;6.20;1.00;;;;;;7358302;19;20303;-63
2022/02/21 10:19:23;;;;;;;6.80;1.65;;;6.20;1.00;;;;;;7355587;19;20560;-63
2022/02/21 10:22:03;;;;;;;17.55;2.97;;;6.40;1.00;;;;;;7356593;19;20010;-62
2022/02/21 10:24:41;;;;;;;7.35;1.50;;;6.70;1.00;;;;;;7360290;19;20728;-62
2022/02/21 10:27:15;;;;;;;10.80;2.53;;;6.60;1.00;;;;;;7358424;19;20014;-62
2022/02/21 10:29:50;;;;;;;6.65;1.52;;;6.80;1.00;;;;;;7378700;19;20701;-62
2022/02/21 10:32:22;;;;;;;5.43;1.30;;;6.90;1.00;;;;;;7356588;19;20015;-63
2022/02/21 10:34:53;;;;;;;5.03;1.27;;;7.10;1.00;;;;;;7361671;19;20541;-62
2022/02/21 10:37:25;;;;;;;5.40;1.65;;;7.40;1.00;;;;;;7363309;19;20077;-62
2022/02/21 10:40:07;;;;;;;8.50;1.15;;;7.50;1.00;;;;;;7357967;19;20040;-62
2022/02/21 10:42:41;;;;;;;4.65;1.60;;;7.50;1.00;;;;;;7357088;19;20094;-62
2022/02/21 10:45:15;;;;;;;6.93;1.60;;;8.00;1.00;;;;;;7362338;19;20082;-62
2022/02/21 10:48:00;;;;;;;;;;;8.40;1.00;;;;;;7380322;19;20018;-62
2022/02/21 10:50:32;;;;;;;11.02;1.48;;;8.40;1.00;;;;;;7357654;19;19970;-62
2022/02/21 10:53:02;;;;;;;5.35;1.25;;;8.70;1.00;;;;;;7356629;19;20495;-62
2022/02/21 10:55:36;;;;;;;4.75;1.70;;;8.90;1.00;;;;;;7360046;19;20022;-62
2022/02/21 10:58:25;;;;;;;7.18;1.63;;;9.20;1.00;;;;;;7361072;19;20181;-61
2022/02/21 11:00:56;;;;;;;4.00;1.13;;;8.70;1.00;;;;;;7356839;19;20802;-63
2022/02/21 11:03:28;;;;;;;5.40;1.45;;;7.80;1.00;;;;;;7360047;19;20473;-61
2022/02/21 11:06:01;;;;;;;6.20;1.30;;;8.10;1.00;;;;;;7365731;19;20310;-63
2022/02/21 11:08:33;;;;;;;4.82;1.60;;;7.30;1.00;;;;;;7381838;19;20029;-63
2022/02/21 11:11:09;;;;;;;5.65;2.00;;;7.80;1.00;;;;;;7356001;19;20035;-63
2022/02/21 11:13:47;;;;;;;7.20;1.38;;;7.80;1.00;;;;;;7360657;19;20014;-62
2022/02/21 11:16:17;;;;;;;3.75;1.35;;;8.00;1.00;;;;;;7365047;19;20010;-64
2022/02/21 11:18:47;;;;;;;8.00;1.63;;;8.30;1.00;;;;;;7360070;19;20003;-64
2022/02/21 11:21:17;;;;;;;5.72;1.10;;;8.40;1.00;;;;;;7353141;19;20102;-63
2022/02/21 11:23:47;;;;;;;4.13;1.00;;;8.20;1.00;;;;;;7381142;19;20030;-62
2022/02/21 11:26:25;;;;;;;6.25;1.20;;;7.90;1.00;;;;;;7361307;19;20014;-62
2022/02/21 11:29:04;;;;;;;7.20;1.30;;;7.20;1.00;;;;;;7356417;19;20092;-61
2022/02/21 11:31:36;;;;;;;4.90;1.05;;;7.40;1.00;;;;;;7355566;19;20462;-63
2022/02/21 11:34:09;;;;;;;7.85;1.55;;;7.00;1.00;;;;;;7358952;19;20019;-62
2022/02/21 11:36:42;;;;;;;4.85;1.50;;;7.10;1.00;;;;;;7361106;19;20011;-63
2022/02/21 11:39:24;;;;;;;4.97;1.20;;;6.90;1.00;;;;;;7355183;19;20018;-63
2022/02/21 11:42:16;;;;;;;3.97;1.10;;;6.80;1.00;;;;;;7354534;19;20633;-61
2022/02/21 11:44:51;;;;;;;5.80;1.08;;;7.00;1.00;;;;;;7382218;19;20010;-63
2022/02/21 11:47:41;;;;;;;;;;;7.20;1.00;;;;;;7360563;19;20030;-63
2022/02/21 11:50:27;;;;;;;6.72;1.80;;;7.40;1.00;;;;;;7354509;19;19915;-63
2022/02/21 11:52:59;;;;;;;4.55;1.55;;;7.60;1.00;;;;;;7354840;19;20023;-63
2022/02/21 11:55:43;;;;;;;2.88;1.38;;;7.60;1.00;;;;;;7361895;19;20483;-63
2022/02/21 11:58:45;;;;;;;4.40;1.05;;;7.60;1.00;;;;;;7360833;19;20006;-63
2022/02/21 12:01:20;;;;;;;5.68;1.25;;;8.00;1.00;;;;;;7356318;19;20014;-62
2022/02/21 12:04:16;;;;;;;7.38;1.23;;;8.20;1.00;;;;;;7356666;19;20006;-62
2022/02/21 12:06:57;;;;;;;5.40;1.10;;;8.20;1.00;;;;;;7359959;19;20011;-63
2022/02/21 12:09:28;;;;;;;4.13;1.33;;;8.30;1.00;;;;;;7359458;19;20101;-63
2022/02/21 12:12:25;;;;;;;7.72;1.65;;;8.30;1.00;;;;;;7367597;19;20014;-61
2022/02/21 12:15:16;;;;;;;5.07;1.88;;;8.40;1.00;;;;;;7386742;19;20097;-63
2022/02/21 12:17:49;;;;;;;12.63;1.77;;;8.60;1.00;;;;;;7364251;19;20011;-61
2022/02/21 12:20:38;;;;;;;6.72;1.52;;;8.70;1.00;;;;;;7361540;19;20024;-63
2022/02/21 12:23:22;;;;;;;4.85;1.05;;;8.60;1.00;;;;;;7365165;19;20098;-63
2022/02/21 12:26:21;;;;;;;9.13;1.48;;;8.90;1.00;;;;;;7366271;19;20014;-63
2022/02/21 12:29:13;;;;;;;5.03;1.25;;;8.60;1.00;;;;;;7362289;19;20393;-62
2022/02/21 12:31:47;;;;;;;5.53;1.90;;;8.50;1.00;;;;;;7362734;19;20060;-62
2022/02/21 12:34:19;;;;;;;4.60;1.40;;;8.30;1.00;;;;;;7364407;19;20014;-63
2022/02/21 12:36:51;;;;;;;6.40;1.55;;;8.40;1.00;;;;;;7365281;19;21618;-62
2022/02/21 12:39:24;;;;;;;5.38;1.40;;;8.40;1.00;;;;;;7362263;19;20011;-62
2022/02/21 12:41:56;;;;;;;5.35;1.23;;;8.40;1.00;;;;;;7385560;19;20294;-62
2022/02/21 12:44:26;;;;;;;6.07;1.42;;;8.40;1.00;;;;;;7361344;19;20559;-63
2022/02/21 12:47:00;;;;;;;4.57;1.33;;;8.60;1.00;;;;;;7363131;19;20015;-63
2022/02/21 12:49:35;;;;;;;12.73;1.63;;;8.30;1.00;;;;;;7360880;19;20565;-62
2022/02/21 12:52:08;;;;;;;3.95;0.98;;;8.20;1.00;;;;;;7361964;19;20017;-62
2022/02/21 12:54:50;;;;;;;5.85;1.00;;;8.00;1.00;;;;;;7362586;19;20474;-62
2022/02/21 12:57:21;;;;;;;5.80;1.15;;;7.90;1.00;;;;;;7364177;19;20459;-62
2022/02/21 12:59:53;;;;;;;5.10;1.42;;;8.30;1.00;;;;;;7379694;19;20014;-62
2022/02/21 13:02:24;;;;;;;3.25;0.80;;;8.20;1.00;;;;;;7359692;19;20144;-62
2022/02/21 13:05:01;;;;;;;4.90;1.33;;;7.90;1.00;;;;;;7364071;19;20027;-64
2022/02/21 13:07:31;;;;;;;4.53;1.10;;;8.10;1.00;;;;;;7364845;19;20081;-61
2022/02/21 13:10:08;;;;;;;6.13;1.23;;;8.00;1.00;;;;;;7358188;19;20027;-62
2022/02/21 13:12:39;;;;;;;3.67;0.90;;;8.10;1.00;;;;;;7359376;19;20071;-62
2022/02/21 13:15:13;;;;;;;4.28;0.95;;;8.10;1.00;;;;;;7365029;19;20018;-62
2022/02/21 13:17:43;;;;;;;5.88;1.45;;;8.30;1.00;;;;;;7387388;19;20439;-62
2022/02/21 13:20:18;;;;;;;6.43;1.42;;;8.10;1.00;;;;;;7358951;19;20018;-62
2022/02/21 13:22:47;;;;;;;6.53;1.58;;;8.40;1.00;;;;;;7359966;19;20010;-63
2022/02/21 13:25:21;;;;;;;9.20;1.40;;;8.30;1.00;;;;;;7364758;19;20019;-62
2022/02/21 13:27:51;;;;;;;9.40;1.50;;;8.00;1.00;;;;;;7365813;19;20094;-62
2022/02/21 13:30:23;;;;;;;5.75;1.30;;;7.90;1.00;;;;;;7362637;19;20082;-62
2022/02/21 13:32:53;;;;;;;3.75;1.17;;;7.90;1.00;;;;;;7381302;19;20677;-62